Time;durP1;ratioP1;P1;durP2;ratioP2;P2;SDS_P1;SDS_P2;PMS_P1;PMS_P2;Temp;Humidity;BMP_temperature;BMP_pressure;BME280_temperature;BME280_humidity;BME280_pressure;Samples;Min_cycle;Max_cycle;Signal;HPM_P1;HPM_P2
2023/05/07 00:02:49;;;;;;;45.28;12.85;;;;;;;16.66;64.55;99773.25;7764026;32;38700;-80
2023/05/07 00:07:05;;;;;;;17.10;10.93;;;;;;;16.55;65.23;99764.44;7763862;32;37083;-80
2023/05/07 00:11:22;;;;;;;20.25;10.43;;;;;;;16.68;64.83;99771.03;7778306;32;39383;-81
2023/05/07 00:15:38;;;;;;;13.10;9.23;;;;;;;16.56;64.88;99762.50;7790874;32;40851;-80
2023/05/07 00:19:54;;;;;;;14.68;9.30;;;;;;;16.69;64.63;99769.88;7790821;32;38044;-81
2023/05/07 00:24:11;;;;;;;16.48;10.07;;;;;;;16.50;65.09;99776.38;7790840;32;38239;-80
2023/05/07 00:28:27;;;;;;;14.40;9.07;;;;;;;16.52;65.25;99779.66;7790674;32;39003;-80
2023/05/07 00:32:45;;;;;;;20.95;9.05;;;;;;;16.62;64.88;99773.06;7790435;32;39896;-80
2023/05/07 00:37:02;;;;;;;14.10;9.05;;;;;;;16.68;64.69;99777.31;7770833;32;37955;-81
2023/05/07 00:41:21;;;;;;;13.80;8.95;;;;;;;16.58;65.29;99766.56;7749861;32;37508;-80
2023/05/07 00:45:38;;;;;;;13.38;8.23;;;;;;;16.71;64.71;99762.94;7763092;32;40147;-80
2023/05/07 00:49:55;;;;;;;13.10;8.20;;;;;;;16.78;64.46;99764.44;7750931;32;40041;-81
2023/05/07 00:54:11;;;;;;;11.82;7.47;;;;;;;16.79;64.47;99769.62;7766737;32;37691;-81
2023/05/07 00:58:27;;;;;;;18.35;7.78;;;;;;;16.78;64.64;99769.94;7766636;32;36949;-80
2023/05/07 01:02:44;;;;;;;14.15;8.00;;;;;;;16.75;64.30;99781.56;7766680;32;40141;-81
2023/05/07 01:07:01;;;;;;;13.90;8.68;;;;;;;16.87;63.94;99771.66;7784265;32;39623;-80
2023/05/07 01:11:20;;;;;;;11.45;7.43;;;;;;;16.86;63.99;99778.28;7793499;32;38135;-81
2023/05/07 01:15:36;;;;;;;11.88;7.50;;;;;;;16.52;64.73;99778.81;7767164;32;36213;-80
2023/05/07 01:19:53;;;;;;;10.60;6.80;;;;;;;16.62;64.22;99767.56;7779645;32;40071;-80
2023/05/07 01:24:09;;;;;;;14.68;7.10;;;;;;;16.67;64.13;99769.38;7793501;32;40574;-81
2023/05/07 01:28:26;;;;;;;12.55;7.28;;;;;;;16.68;63.59;99779.28;7779481;32;37969;-80
2023/05/07 01:32:58;;;;;;;11.93;7.05;;;;;;;16.50;63.88;99772.81;7755783;32;37770;-81
2023/05/07 01:37:15;;;;;;;11.07;7.22;;;;;;;16.53;63.61;99778.50;7753697;32;40382;-80
2023/05/07 01:41:31;;;;;;;12.80;8.10;;;;;;;16.40;63.98;99778.56;7766171;32;39953;-80
2023/05/07 01:45:49;;;;;;;11.15;7.28;;;;;;;16.45;63.63;99768.25;7766025;32;37625;-81
2023/05/07 01:50:07;;;;;;;11.23;7.32;;;;;;;16.55;63.17;99760.88;7765941;32;37442;-80
2023/05/07 01:54:28;;;;;;;9.63;6.70;;;;;;;16.36;63.47;99775.62;7766087;32;39328;-80
2023/05/07 01:58:46;;;;;;;12.02;6.82;;;;;;;16.52;62.49;99774.16;7765722;32;39893;-81
2023/05/07 02:03:02;;;;;;;11.20;7.32;;;;;;;16.56;61.79;99770.75;7789156;32;38636;-81
2023/05/07 02:07:19;;;;;;;11.85;7.07;;;;;;;16.47;61.87;99774.25;7792855;32;36678;-80
2023/05/07 02:11:35;;;;;;;17.98;7.53;;;;;;;16.44;61.58;99766.63;7792977;32;39407;-80
2023/05/07 02:15:53;;;;;;;13.35;7.85;;;;;;;16.19;62.07;99780.97;7776838;32;40235;-81
2023/05/07 02:20:13;;;;;;;11.30;8.10;;;;;;;16.26;61.92;99770.34;7789336;32;38855;-80
2023/05/07 02:24:29;;;;;;;15.45;7.90;;;;;;;16.28;61.67;99779.09;7791376;32;36669;-80
2023/05/07 02:28:46;;;;;;;12.05;7.57;;;;;;;15.96;62.86;99772.66;7765664;32;39369;-81
2023/05/07 02:33:02;;;;;;;11.30;7.37;;;;;;;15.94;63.51;99770.22;7765426;32;40856;-80
2023/05/07 02:37:19;;;;;;;12.45;8.20;;;;;;;15.92;63.69;99771.66;7751379;32;38808;-80
2023/05/07 02:41:35;;;;;;;14.15;9.00;;;;;;;16.05;63.35;99768.06;7765437;32;36694;-80
2023/05/07 02:46:04;;;;;;;16.05;8.70;;;;;;;15.99;64.04;99765.72;7765130;32;40054;-80
2023/05/07 02:50:21;;;;;;;15.25;9.52;;;;;;;15.98;64.71;99772.37;7765336;32;39593;-81
2023/05/07 02:54:37;;;;;;;13.52;9.45;;;;;;;15.93;65.07;99774.06;7765110;32;37858;-80
2023/05/07 02:58:54;;;;;;;14.18;8.90;;;;;;;15.92;65.35;99779.91;7765721;32;37841;-80
2023/05/07 03:03:10;;;;;;;13.27;9.13;;;;;;;15.87;65.70;99780.03;7765156;32;40001;-80
2023/05/07 03:07:27;;;;;;;14.35;9.10;;;;;;;16.05;64.94;99776.31;7751168;32;40118;-79
2023/05/07 03:11:43;;;;;;;14.93;9.10;;;;;;;15.86;65.49;99783.88;7764155;32;37576;-81
2023/05/07 03:15:59;;;;;;;14.15;9.23;;;;;;;15.85;65.43;99768.50;7765111;32;37087;-81
2023/05/07 03:20:16;;;;;;;14.95;9.77;;;;;;;15.85;65.41;99782.25;7769591;32;39223;-81
2023/05/07 03:24:32;;;;;;;14.75;9.40;;;;;;;15.73;65.68;99782.75;7791970;32;40841;-80
2023/05/07 03:28:49;;;;;;;16.85;9.98;;;;;;;15.77;65.28;99790.09;7791968;32;38693;-80
2023/05/07 03:33:05;;;;;;;16.75;9.60;;;;;;;15.90;64.58;99784.88;7791795;32;36761;-81
2023/05/07 03:37:21;;;;;;;15.48;8.60;;;;;;;15.67;65.04;99789.47;7791799;32;39329;-80
2023/05/07 03:41:38;;;;;;;16.65;9.13;;;;;;;15.68;65.21;99799.34;7777730;32;39838;-80
2023/05/07 03:45:54;;;;;;;16.40;9.68;;;;;;;15.69;65.25;99790.78;7791672;32;38696;-80
2023/05/07 03:50:11;;;;;;;14.38;8.98;;;;;;;15.47;66.09;99794.25;7788273;32;37226;-80
2023/05/07 03:54:27;;;;;;;17.65;10.55;;;;;;;15.57;65.77;99795.97;7764431;32;39298;-80
2023/05/07 03:58:44;;;;;;;17.02;10.90;;;;;;;15.66;65.61;99799.66;7764291;32;40591;-80
2023/05/07 04:03:00;;;;;;;18.42;11.15;;;;;;;15.73;65.63;99796.50;7764114;32;38100;-79
2023/05/07 04:07:17;;;;;;;17.33;9.43;;;;;;;15.62;66.29;99806.84;7763884;32;37180;-81
2023/05/07 04:11:33;;;;;;;16.10;9.13;;;;;;;15.85;65.42;99798.72;7764078;32;39012;-80
2023/05/07 04:15:49;;;;;;;14.70;9.27;;;;;;;15.90;64.91;99801.38;7771282;32;40830;-81
2023/05/07 04:20:08;;;;;;;14.70;9.63;;;;;;;15.89;65.07;99797.03;7762591;32;38194;-79
2023/05/07 04:24:25;;;;;;;14.23;8.70;;;;;;;15.84;65.49;99802.63;7774170;32;37096;-83
2023/05/07 04:28:42;;;;;;;14.20;7.37;;;;;;;15.98;65.86;99813.59;7777923;32;39877;-75
2023/05/07 04:32:58;;;;;;;14.65;9.32;;;;;;;16.28;67.50;99814.84;7767009;32;40830;-81
2023/05/07 04:37:14;;;;;;;15.65;9.25;;;;;;;16.40;64.55;99815.16;7766922;32;38013;-81
2023/05/07 04:41:31;;;;;;;15.38;9.60;;;;;;;16.22;63.71;99818.87;7766705;32;37092;-81
2023/05/07 04:45:51;;;;;;;17.48;10.50;;;;;;;16.18;63.87;99828.84;7784563;32;37661;-78
2023/05/07 04:50:08;;;;;;;60.17;11.82;;;;;;;16.12;64.08;99828.94;7770288;32;40074;-81
2023/05/07 04:54:26;;;;;;;32.80;11.82;;;;;;;16.04;64.52;99842.59;7766710;32;37663;-80
2023/05/07 04:58:42;;;;;;;79.47;13.32;;;;;;;15.98;65.33;99836.41;7767108;32;37247;-83
2023/05/07 05:02:59;;;;;;;60.72;11.35;;;;;;;16.11;64.61;99841.09;7766098;32;40061;-84
2023/05/07 05:07:15;;;;;;;15.75;9.63;;;;;;;15.85;66.04;99843.56;7766346;32;39942;-82
2023/05/07 05:11:32;;;;;;;14.68;9.68;;;;;;;16.06;66.05;99843.94;7766431;32;38737;-82
2023/05/07 05:15:48;;;;;;;15.50;9.52;;;;;;;16.24;65.49;99841.37;7766663;32;37148;-81
2023/05/07 05:20:05;;;;;;;14.20;9.23;;;;;;;16.37;65.10;99842.44;7766544;32;39266;-86
2023/05/07 05:24:22;;;;;;;16.37;9.20;;;;;;;16.53;64.57;99841.00;7766501;32;39873;-83
2023/05/07 05:28:38;;;;;;;15.88;9.57;;;;;;;16.55;64.73;99837.94;7776192;32;38600;-85
2023/05/07 05:32:54;;;;;;;14.27;9.43;;;;;;;16.34;66.45;99843.91;7793321;32;37101;-85
2023/05/07 05:37:11;;;;;;;14.93;10.45;;;;;;;16.71;65.38;99841.94;7772359;32;39257;-86
2023/05/07 05:41:27;;;;;;;13.88;9.77;;;;;;;17.06;64.27;99825.72;7767394;32;40475;-87
2023/05/07 05:45:43;;;;;;;15.38;10.32;;;;;;;16.95;64.33;99840.84;7766102;32;38009;-86
2023/05/07 05:50:00;;;;;;;17.30;10.77;;;;;;;17.28;63.70;99835.88;7752202;32;37380;-83
2023/05/07 05:54:16;;;;;;;16.95;10.30;;;;;;;17.39;62.85;99836.44;7774494;32;39211;-84
2023/05/07 05:58:32;;;;;;;15.60;9.73;;;;;;;17.65;62.08;99820.03;7769351;32;40797;-83
2023/05/07 06:02:49;;;;;;;17.62;9.98;;;;;;;17.86;61.77;99825.78;7791538;32;38105;-80
2023/05/07 06:07:05;;;;;;;14.43;9.93;;;;;;;18.13;61.20;99816.44;7781777;32;37744;-80
2023/05/07 06:11:22;;;;;;;16.02;9.52;;;;;;;18.18;59.99;99816.31;7765115;32;39797;-81
2023/05/07 06:15:38;;;;;;;14.65;9.40;;;;;;;18.13;60.64;99830.25;7765599;32;39864;-81
2023/05/07 06:19:54;;;;;;;14.75;9.45;;;;;;;18.62;59.34;99815.53;7765328;32;38594;-81
2023/05/07 06:24:11;;;;;;;14.20;9.40;;;;;;;18.64;58.72;99824.28;7765593;32;37325;-81
2023/05/07 06:28:27;;;;;;;14.80;9.45;;;;;;;18.96;57.97;99817.47;7765697;32;38946;-81
2023/05/07 06:32:43;;;;;;;16.12;9.18;;;;;;;19.14;57.96;99824.59;7765568;32;39996;-81
2023/05/07 06:37:00;;;;;;;14.50;9.57;;;;;;;18.61;59.84;99823.00;7765533;32;38719;-81
2023/05/07 06:41:16;;;;;;;14.63;9.35;;;;;;;18.79;58.76;99834.84;7765360;32;36990;-80
2023/05/07 06:45:32;;;;;;;13.23;9.10;;;;;;;18.87;58.74;99841.53;7763961;32;39325;-81
2023/05/07 06:49:49;;;;;;;15.95;9.40;;;;;;;19.09;58.28;99843.28;7765275;32;39833;-81
2023/05/07 06:54:05;;;;;;;16.27;10.02;;;;;;;19.15;57.90;99844.75;7765351;32;37567;-81
2023/05/07 06:58:22;;;;;;;14.57;9.05;;;;;;;18.86;58.23;99845.44;7765296;32;37213;-81
2023/05/07 07:02:38;;;;;;;14.27;8.55;;;;;;;19.32;57.29;99830.88;7765180;32;39226;-81
2023/05/07 07:06:56;;;;;;;13.93;9.02;;;;;;;19.67;56.66;99830.75;7764402;32;40899;-80
2023/05/07 07:11:12;;;;;;;15.23;9.32;;;;;;;19.62;57.74;99838.44;7765107;32;38678;-81
2023/05/07 07:15:29;;;;;;;14.77;8.48;;;;;;;19.49;58.00;99841.06;7747129;32;38629;-81
2023/05/07 07:19:45;;;;;;;15.00;8.38;;;;;;;20.11;56.55;99846.34;7761850;32;38986;-71
2023/05/07 07:24:02;;;;;;;16.33;8.50;;;;;;;20.15;56.57;99842.59;7761544;32;39742;-73
2023/05/07 07:28:20;;;;;;;13.90;8.40;;;;;;;20.55;55.93;99850.44;7762446;32;37487;-73
2023/05/07 07:32:37;;;;;;;11.98;7.78;;;;;;;21.11;55.27;99846.56;7772389;32;37129;-86
2023/05/07 07:36:53;;;;;;;16.80;9.10;;;;;;;21.01;54.71;99845.84;7761733;32;38900;-81
2023/05/07 07:41:10;;;;;;;13.05;8.75;;;;;;;20.95;55.45;99846.41;7791993;32;40012;-80
2023/05/07 07:45:26;;;;;;;14.43;8.65;;;;;;;20.84;56.10;99843.25;7791826;32;37931;-80
2023/05/07 07:49:42;;;;;;;17.55;8.75;;;;;;;21.11;55.88;99854.88;7779357;32;36781;-92
2023/05/07 07:53:58;;;;;;;16.95;8.05;;;;;;;21.03;54.36;99844.72;7764542;32;39345;-89
2023/05/07 07:58:15;;;;;;;13.70;7.90;;;;;;;21.59;55.19;99842.31;7764030;32;39884;-85
2023/05/07 08:02:31;;;;;;;10.85;7.40;;;;;;;21.96;54.56;99838.78;7766702;32;37552;-83
2023/05/07 08:06:48;;;;;;;11.90;7.85;;;;;;;21.62;53.19;99844.41;7764663;32;318257;-83
2023/05/07 08:11:04;;;;;;;12.27;7.80;;;;;;;22.08;52.27;99834.03;7764008;32;39293;-82
2023/05/07 08:15:21;;;;;;;12.65;7.72;;;;;;;22.02;51.45;99845.69;7762949;32;41246;-83
2023/05/07 08:19:37;;;;;;;11.52;8.00;;;;;;;21.82;52.94;99836.31;7741871;32;38422;-83
2023/05/07 08:23:53;;;;;;;13.27;6.53;;;;;;;21.54;54.24;99846.16;7759545;32;37882;-81
2023/05/07 08:28:10;;;;;;;11.43;7.22;;;;;;;21.24;52.47;99848.22;7762094;32;39344;-82
2023/05/07 08:32:27;;;;;;;15.57;7.55;;;;;;;21.36;52.38;99842.72;7769076;32;39480;-82
2023/05/07 08:36:44;;;;;;;11.23;6.93;;;;;;;21.77;53.17;99834.59;7779297;32;36916;-81
2023/05/07 08:41:00;;;;;;;11.05;6.57;;;;;;;21.45;54.71;99839.03;7783753;32;36962;-82
2023/05/07 08:45:18;;;;;;;9.88;6.65;;;;;;;21.96;52.52;99842.34;7774148;32;39233;-81
2023/05/07 08:49:35;;;;;;;11.23;7.18;;;;;;;20.80;54.23;99853.41;7763324;32;41656;-82
2023/05/07 08:53:51;;;;;;;11.32;7.28;;;;;;;21.62;53.29;99849.97;7749642;32;37557;-82
2023/05/07 08:58:07;;;;;;;11.15;6.53;;;;;;;21.56;54.23;99851.34;7767819;32;37162;-81
2023/05/07 09:02:24;;;;;;;10.35;7.30;;;;;;;21.47;52.30;99851.47;7773693;32;39347;-82
2023/05/07 09:06:41;;;;;;;10.80;6.72;;;;;;;21.62;52.70;99854.72;7781127;32;39960;-82
2023/05/07 09:10:58;;;;;;;10.65;6.03;;;;;;;20.79;54.72;99854.53;7775385;32;37824;-80
2023/05/07 09:15:14;;;;;;;11.18;5.18;;;;;;;21.81;52.82;99846.63;7779142;32;37772;-81
2023/05/07 09:19:31;;;;;;;8.63;5.22;;;;;;;21.50;51.90;99847.97;7765257;32;39457;-81
2023/05/07 09:23:53;;;;;;;6.20;3.67;;;;;;;22.16;52.37;99843.38;7774522;32;40614;-81
2023/05/07 09:28:10;;;;;;;9.45;4.25;;;;;;;21.90;50.27;99839.00;7775006;32;37791;-82
2023/05/07 09:32:27;;;;;;;7.32;4.30;;;;;;;22.20;47.60;99835.97;7776855;32;36712;-82
2023/05/07 09:36:43;;;;;;;5.85;3.50;;;;;;;21.92;47.03;99847.78;7768602;32;38970;-82
2023/05/07 09:41:11;;;;;;;6.12;4.00;;;;;;;22.18;48.66;99841.06;7789039;32;40794;-82
2023/05/07 09:45:28;;;;;;;6.80;3.90;;;;;;;22.16;47.21;99837.00;7782952;32;37780;-81
2023/05/07 09:49:47;;;;;;;5.82;3.30;;;;;;;22.04;45.62;99841.44;7767599;32;37064;-81
2023/05/07 09:54:04;;;;;;;6.95;4.05;;;;;;;22.33;45.03;99835.97;7761943;32;39990;-82
2023/05/07 09:58:22;;;;;;;7.03;2.72;;;;;;;22.48;46.02;99835.25;7768841;32;40119;-82
2023/05/07 10:02:46;;;;;;;5.90;2.87;;;;;;;22.82;45.15;99833.87;7788764;32;36931;-81
2023/05/07 10:07:03;;;;;;;4.47;2.75;;;;;;;23.01;42.42;99835.19;7768046;32;36897;-82
2023/05/07 10:11:21;;;;;;;8.48;2.97;;;;;;;23.80;43.07;99837.25;7764801;32;39357;-82
2023/05/07 10:15:37;;;;;;;4.72;2.80;;;;;;;23.33;42.87;99841.63;7765704;32;39150;-82
2023/05/07 10:19:54;;;;;;;5.07;2.95;;;;;;;24.32;41.46;99844.50;7778651;32;38618;-83
2023/05/07 10:24:29;;;;;;;3.87;2.70;;;;;;;24.61;38.85;99834.00;7771435;32;36945;-80
2023/05/07 10:28:49;;;;;;;3.60;2.40;;;;;;;24.70;39.47;99834.59;7781249;32;38275;-82
2023/05/07 10:33:08;;;;;;;4.22;2.80;;;;;;;25.68;38.40;99832.47;7772291;32;39663;-84
2023/05/07 10:37:25;;;;;;;3.70;2.67;;;;;;;25.28;37.23;99830.16;7770876;32;37577;-83
2023/05/07 10:41:42;;;;;;;3.17;2.60;;;;;;;25.45;38.05;99821.28;7788362;32;36132;-85
2023/05/07 10:46:34;;;;;;;10.30;3.05;;;;;;;25.37;37.43;99824.34;7792712;32;39959;-84
2023/05/07 10:51:11;;;;;;;2.70;2.22;;;;;;;25.61;37.45;99817.56;7748848;32;40128;-84
2023/05/07 10:55:29;;;;;;;4.40;2.78;;;;;;;25.93;35.70;99825.69;7763472;32;38815;-83
2023/05/07 10:59:46;;;;;;;6.28;2.87;;;;;;;24.77;37.66;99828.38;7791451;32;36457;-89
2023/05/07 11:04:34;;;;;;;5.68;2.80;;;;;;;24.54;38.72;99825.47;7790251;32;39943;-87
2023/05/07 11:08:58;;;;;;;4.37;2.53;;;;;;;24.46;38.49;99820.91;7751035;32;39090;-86
2023/05/07 11:13:14;;;;;;;7.00;2.70;;;;;;;24.47;36.99;99826.09;7762479;32;37858;-86
2023/05/07 11:17:34;;;;;;;5.90;2.85;;;;;;;24.98;37.70;99822.41;7777648;32;36764;-84
2023/05/07 11:21:53;;;;;;;5.32;2.75;;;;;;;24.18;39.18;99833.84;7760897;32;39459;-85
2023/05/07 11:26:11;;;;;;;5.85;2.72;;;;;;;23.63;40.37;99839.25;7765111;32;39868;-86
2023/05/07 11:30:28;;;;;;;3.95;2.55;;;;;;;23.13;38.18;99829.59;7765350;32;38475;-86
2023/05/07 11:34:45;;;;;;;3.87;2.60;;;;;;;23.90;38.24;99831.19;7780171;32;36887;-85
2023/05/07 11:39:01;;;;;;;3.12;2.15;;;;;;;23.98;37.20;99821.81;7774294;32;38922;-87
2023/05/07 11:43:18;;;;;;;5.47;2.70;;;;;;;23.91;35.13;99820.88;7775072;32;39936;-86
2023/05/07 11:47:35;;;;;;;3.90;2.42;;;;;;;24.29;36.50;99822.12;7780126;32;37926;-86
2023/05/07 11:51:51;;;;;;;4.72;2.70;;;;;;;24.48;34.96;99810.22;7769847;32;36652;-83
2023/05/07 11:56:12;;;;;;;10.20;3.35;;;;;;;25.00;36.33;99810.87;7764593;32;39330;-82
2023/05/07 12:00:28;;;;;;;3.45;2.65;;;;;;;25.64;34.48;99814.84;7781455;32;40112;-88
2023/05/07 12:04:45;;;;;;;5.15;2.70;;;;;;;25.38;35.13;99818.37;7775329;32;37974;-84
2023/05/07 12:09:01;;;;;;;5.37;3.28;;;;;;;25.60;35.62;99816.78;7764913;32;37773;-83
2023/05/07 12:13:20;;;;;;;7.03;3.12;;;;;;;24.79;36.44;99817.66;7764233;32;39393;-83
2023/05/07 12:17:37;;;;;;;6.37;3.28;;;;;;;24.43;37.03;99818.84;7764132;32;40929;-82
2023/05/07 12:21:53;;;;;;;6.95;3.15;;;;;;;23.97;39.27;99820.22;7774645;32;37672;-81
2023/05/07 12:26:10;;;;;;;5.85;2.95;;;;;;;24.55;38.39;99821.53;7780856;32;37028;-83
2023/05/07 12:30:27;;;;;;;4.53;2.72;;;;;;;25.25;38.82;99814.97;7762639;32;39318;-84
2023/05/07 12:34:43;;;;;;;6.78;3.20;;;;;;;24.56;36.21;99812.00;7763598;32;39608;-85
2023/05/07 12:39:00;;;;;;;5.53;2.85;;;;;;;24.07;37.98;99813.28;7776069;32;37915;-91
2023/05/07 12:43:18;;;;;;;4.50;3.00;;;;;;;23.90;38.09;99808.91;7777030;32;37650;-89
2023/05/07 12:47:35;;;;;;;6.55;2.90;;;;;;;24.33;37.30;99815.44;7779129;32;40013;-86
2023/05/07 12:51:51;;;;;;;4.75;3.12;;;;;;;24.95;38.46;99806.41;7767141;32;40584;-86
2023/05/07 12:56:08;;;;;;;4.12;2.67;;;;;;;24.38;36.95;99800.44;7753144;32;38852;-85
2023/05/07 13:00:38;;;;;;;6.22;2.90;;;;;;;24.92;36.12;99801.56;7772560;32;36840;-83
2023/05/07 13:04:54;;;;;;;6.22;2.55;;;;;;;25.21;33.71;99791.75;7765733;32;39348;-82
2023/05/07 13:09:11;;;;;;;4.65;2.67;;;;;;;25.44;36.72;99791.78;7765613;32;39749;-84
2023/05/07 13:13:27;;;;;;;4.97;2.42;;;;;;;25.43;32.78;99792.16;7767778;32;38812;-84
2023/05/07 13:17:47;;;;;;;4.70;2.45;;;;;;;25.49;33.45;99791.50;7783849;32;37655;-84
2023/05/07 13:22:04;;;;;;;7.85;3.00;;;;;;;25.98;33.77;99777.91;7792007;32;40109;-86
2023/05/07 13:26:21;;;;;;;5.28;2.30;;;;;;;26.81;33.04;99785.41;7778965;32;40849;-84
2023/05/07 13:30:42;;;;;;;4.93;2.22;;;;;;;27.37;29.80;99779.97;7766365;32;37903;-83
2023/05/07 13:34:58;;;;;;;6.60;2.55;;;;;;;27.05;31.80;99778.47;7766121;32;37800;-86
2023/05/07 13:39:15;;;;;;;5.85;2.78;;;;;;;26.71;28.56;99774.91;7791849;32;39277;-84
2023/05/07 13:43:34;;;;;;;6.00;2.20;;;;;;;26.80;31.27;99778.19;7784339;32;39625;-85
2023/05/07 13:47:51;;;;;;;4.32;2.35;;;;;;;26.51;29.19;99768.62;7775971;32;38011;-85
2023/05/07 13:52:08;;;;;;;3.87;2.53;;;;;;;26.50;31.98;99775.41;7769525;32;36938;-83
2023/05/07 13:56:24;;;;;;;9.65;2.47;;;;;;;27.00;30.88;99764.81;7775883;32;39285;-82
2023/05/07 14:00:40;;;;;;;4.40;2.75;;;;;;;26.99;31.79;99768.78;7784191;32;40130;-85
2023/05/07 14:04:57;;;;;;;4.75;2.42;;;;;;;26.71;31.13;99772.09;7793209;32;39136;-86
2023/05/07 14:09:13;;;;;;;4.78;2.30;;;;;;;27.15;28.29;99768.56;7793495;32;36814;-83
2023/05/07 14:13:30;;;;;;;5.95;2.70;;;;;;;26.67;31.29;99762.88;7772632;32;39758;-85
2023/05/07 14:17:47;;;;;;;7.10;2.42;;;;;;;27.13;31.19;99763.38;7766835;32;39997;-84
2023/05/07 14:22:03;;;;;;;3.97;2.40;;;;;;;27.09;30.20;99756.13;7765708;32;37577;-84
2023/05/07 14:26:20;;;;;;;4.43;2.75;;;;;;;27.71;29.10;99759.06;7782887;32;36680;-83
2023/05/07 14:30:36;;;;;;;4.95;2.80;;;;;;;27.39;28.53;99761.62;7769136;32;40228;-82
2023/05/07 14:34:53;;;;;;;7.22;3.28;;;;;;;27.22;30.01;99760.25;7765562;32;41178;-82
2023/05/07 14:39:09;;;;;;;5.05;3.05;;;;;;;27.45;31.07;99767.66;7765503;32;37728;-82
2023/05/07 14:43:28;;;;;;;7.15;2.87;;;;;;;26.94;29.14;99777.53;7783666;32;36929;-80
2023/05/07 14:47:44;;;;;;;6.50;3.05;;;;;;;27.04;30.13;99776.03;7792336;32;39244;-83
2023/05/07 14:52:00;;;;;;;6.18;2.90;;;;;;;26.47;30.36;99765.78;7792133;32;39968;-84
2023/05/07 14:56:17;;;;;;;8.32;3.35;;;;;;;26.53;31.35;99780.25;7792068;32;37844;-85
2023/05/07 15:00:34;;;;;;;7.90;3.12;;;;;;;26.06;33.53;99774.06;7792308;32;37025;-86
2023/05/07 15:04:50;;;;;;;7.95;3.25;;;;;;;26.65;32.56;99768.03;7778570;32;39212;-84
2023/05/07 15:09:08;;;;;;;5.07;3.17;;;;;;;26.34;30.72;99756.84;7772260;32;39990;-86
2023/05/07 15:13:25;;;;;;;4.22;2.50;;;;;;;26.13;30.46;99776.09;7765039;32;37978;-84
2023/05/07 15:17:41;;;;;;;3.75;2.47;;;;;;;25.70;30.13;99772.66;7751608;32;37512;-85
2023/05/07 15:21:59;;;;;;;4.72;2.40;;;;;;;25.53;30.61;99768.41;7765127;32;39375;-87
2023/05/07 15:26:15;;;;;;;3.67;2.55;;;;;;;25.32;32.40;99778.03;7765120;32;40826;-87
2023/05/07 15:30:32;;;;;;;4.25;2.20;;;;;;;24.97;32.66;99784.53;7764910;32;38072;-84
2023/05/07 15:34:48;;;;;;;4.15;2.30;;;;;;;24.90;31.58;99784.41;7764848;32;36980;-86
2023/05/07 15:39:04;;;;;;;4.03;2.12;;;;;;;24.91;32.02;99784.03;7781598;32;39268;-84
2023/05/07 15:43:21;;;;;;;3.80;2.20;;;;;;;24.78;31.61;99792.94;7779097;32;41291;-82
2023/05/07 15:47:37;;;;;;;3.42;1.85;;;;;;;25.16;31.56;99788.47;7787053;32;38527;-82
2023/05/07 15:51:54;;;;;;;5.40;2.30;;;;;;;24.76;31.30;99795.28;7764568;32;37086;-85
2023/05/07 15:56:10;;;;;;;4.53;2.00;;;;;;;24.97;31.74;99787.31;7764327;32;40174;-85
2023/05/07 16:00:27;;;;;;;6.95;2.05;;;;;;;24.54;32.59;99795.66;7773307;32;40063;-90
2023/05/07 16:04:43;;;;;;;2.72;1.80;;;;;;;24.25;32.55;99797.00;7784026;32;37940;-90
2023/05/07 16:09:00;;;;;;;4.43;1.90;;;;;;;24.23;32.26;99801.28;7764165;32;37074;-86
2023/05/07 16:13:19;;;;;;;2.80;1.62;;;;;;;23.56;33.19;99791.78;7763512;32;39207;-89
2023/05/07 16:17:36;;;;;;;4.20;2.10;;;;;;;23.54;33.40;99799.69;7776022;32;39918;-88
2023/05/07 16:21:53;;;;;;;5.90;2.10;;;;;;;23.14;34.36;99811.75;7778202;32;37966;-90
2023/05/07 16:26:09;;;;;;;2.67;1.70;;;;;;;22.81;34.47;99810.00;7787733;32;37689;-87
2023/05/07 16:30:26;;;;;;;5.25;2.28;;;;;;;22.74;35.10;99806.25;7786593;32;38973;-88
2023/05/07 16:34:42;;;;;;;3.55;2.10;;;;;;;22.61;35.00;99808.25;7788064;32;39868;-90
2023/05/07 16:38:58;;;;;;;5.40;2.22;;;;;;;22.30;34.11;99804.16;7786258;32;37784;-88
2023/05/07 16:43:15;;;;;;;4.95;2.00;;;;;;;22.23;34.66;99801.13;7773449;32;36995;-89
2023/05/07 16:47:31;;;;;;;2.50;1.87;;;;;;;22.15;34.89;99802.09;7763361;32;39147;-89
2023/05/07 16:51:48;;;;;;;4.18;2.28;;;;;;;21.79;34.90;99814.84;7774678;32;40757;-88
2023/05/07 16:56:07;;;;;;;10.68;2.47;;;;;;;21.55;35.86;99810.91;7789791;32;37878;-89
2023/05/07 17:00:23;;;;;;;3.42;2.40;;;;;;;21.42;36.78;99801.72;7790209;32;37715;-88
2023/05/07 17:04:46;;;;;;;3.37;2.30;;;;;;;21.23;36.66;99823.63;7789850;32;40003;-88
2023/05/07 17:09:03;;;;;;;3.95;2.40;;;;;;;21.31;36.72;99817.97;7772734;32;40825;-90
2023/05/07 17:13:19;;;;;;;8.50;2.58;;;;;;;21.25;37.43;99824.91;7756200;32;37622;-87
2023/05/07 17:17:35;;;;;;;3.87;2.70;;;;;;;21.27;37.98;99832.91;7770884;32;37531;-85
2023/05/07 17:21:53;;;;;;;7.37;3.40;;;;;;;21.01;38.87;99837.53;7762589;32;39366;-86
2023/05/07 17:26:16;;;;;;;4.70;3.00;;;;;;;21.11;37.65;99849.34;7762304;32;40051;-87
2023/05/07 17:30:32;;;;;;;9.23;3.40;;;;;;;20.75;39.43;99850.84;7762958;32;37743;-89
2023/05/07 17:34:49;;;;;;;5.60;3.37;;;;;;;20.25;41.09;99852.47;7766354;32;37066;-88
2023/05/07 17:39:05;;;;;;;7.95;3.60;;;;;;;20.32;39.98;99855.50;7766325;32;39334;-88
2023/05/07 17:43:22;;;;;;;7.07;4.00;;;;;;;20.43;39.94;99855.91;7784313;32;40133;-88
2023/05/07 17:47:38;;;;;;;6.80;3.90;;;;;;;19.86;40.54;99871.84;7790697;32;38687;-88
2023/05/07 17:51:54;;;;;;;8.52;4.30;;;;;;;19.97;39.80;99871.50;7793434;32;37043;-88
2023/05/07 17:56:11;;;;;;;9.13;4.05;;;;;;;19.37;40.83;99882.41;7780416;32;40162;-88
2023/05/07 18:00:28;;;;;;;7.30;4.12;;;;;;;19.52;41.02;99889.34;7793061;32;40059;-88
2023/05/07 18:04:44;;;;;;;9.13;4.93;;;;;;;18.75;43.14;99895.44;7792897;32;38771;-89
2023/05/07 18:09:00;;;;;;;9.48;4.50;;;;;;;18.86;43.33;99901.47;7780124;32;37047;-88
2023/05/07 18:13:17;;;;;;;7.47;4.32;;;;;;;18.86;43.08;99897.91;7765804;32;40094;-82
2023/05/07 18:17:33;;;;;;;9.07;4.75;;;;;;;18.49;43.38;99903.69;7767416;32;40779;-86
2023/05/07 18:21:50;;;;;;;7.50;4.50;;;;;;;18.17;42.54;99891.09;7771210;32;38405;-87
2023/05/07 18:26:06;;;;;;;9.43;5.28;;;;;;;18.21;42.81;99889.31;7775093;32;37741;-84
2023/05/07 18:30:23;;;;;;;9.32;4.82;;;;;;;18.19;43.05;99894.34;7776619;32;40362;-86
2023/05/07 18:34:40;;;;;;;8.82;4.85;;;;;;;18.11;43.99;99886.87;7774348;32;40020;-86
2023/05/07 18:38:56;;;;;;;8.50;4.45;;;;;;;18.20;43.14;99901.50;7765102;32;37886;-86
2023/05/07 18:43:12;;;;;;;11.98;5.05;;;;;;;17.78;44.55;99907.34;7773307;32;37654;-85
2023/05/07 18:47:29;;;;;;;8.68;4.53;;;;;;;17.52;44.06;99912.69;7777471;32;39283;-83
2023/05/07 18:51:45;;;;;;;8.43;4.65;;;;;;;17.78;43.65;99923.88;7772755;32;39889;-85
2023/05/07 18:56:02;;;;;;;10.18;4.35;;;;;;;17.72;43.23;99946.38;7763546;32;37344;-86
2023/05/07 19:00:18;;;;;;;7.22;4.70;;;;;;;17.65;43.86;99958.66;7773815;32;37223;-88
2023/05/07 19:04:35;;;;;;;9.82;4.25;;;;;;;17.94;43.75;99964.88;7775530;32;37506;-87
2023/05/07 19:08:51;;;;;;;9.48;4.47;;;;;;;17.71;44.10;99966.81;7772872;32;40554;-87
2023/05/07 19:13:07;;;;;;;10.77;4.82;;;;;;;17.49;45.99;99979.50;7791951;32;37964;-79
2023/05/07 19:17:24;;;;;;;8.48;5.10;;;;;;;17.36;44.92;99986.66;7780007;32;37782;-80
2023/05/07 19:21:40;;;;;;;7.68;4.80;;;;;;;17.55;43.92;99996.69;7765571;32;39401;-87
2023/05/07 19:25:57;;;;;;;8.90;5.22;;;;;;;17.65;43.35;100004.72;7788646;32;40891;-87
2023/05/07 19:30:14;;;;;;;7.28;4.70;;;;;;;17.34;44.68;100007.41;7767025;32;37877;-88
2023/05/07 19:34:30;;;;;;;12.18;4.72;;;;;;;17.24;45.02;99997.44;7765920;32;36889;-88
2023/05/07 19:38:48;;;;;;;7.37;4.78;;;;;;;16.89;45.58;99992.44;7766524;32;39991;-88
2023/05/07 19:43:05;;;;;;;7.75;4.62;;;;;;;16.93;45.02;100000.06;7792151;32;38867;-90
2023/05/07 19:47:21;;;;;;;10.90;4.90;;;;;;;16.40;45.62;100018.75;7791908;32;39246;-90
2023/05/07 19:51:37;;;;;;;8.02;4.45;;;;;;;16.40;45.69;100032.50;7783486;32;36716;-85
2023/05/07 19:56:21;;;;;;;8.48;4.80;;;;;;;16.60;46.00;100050.53;7776747;32;39410;-88
2023/05/07 20:00:37;;;;;;;8.82;4.72;;;;;;;16.55;46.38;100052.59;7764445;32;40541;-85
2023/05/07 20:04:55;;;;;;;6.37;4.32;;;;;;;16.57;45.35;100061.34;7764468;32;38674;-85